Terminal Aerodrome Forecast
Issued by NWS Sioux Falls, SD

Home | Current Version | Previous Version | Graphics & Text | Print | Product List | Glossary On
Versions: 1 2 3 4 5 6 7 8 9 10 11 12 13 14 15
103
FTUS43 KFSD 181729
TAFHON
TAF
KHON 181729Z 1818/1918 32009KT 6SM -SN OVC050
     FM182000 31012KT P6SM OVC045
      TEMPO 1820/1823 BKN020
     FM190000 35010KT P6SM OVC080
     FM190800 VRB03KT P6SM SCT200=

USA.gov is the U.S. government's official web portal to all federal, state and local government web resources and services.